sensor_id;sensor_type;location;lat;lon;timestamp;P1;durP1;ratioP1;P2;durP2;ratioP2
7997;SDS011;4044;49.814;7.828;2022-09-21T00:02:24;4.47;;;3.80;;
7997;SDS011;4044;49.814;7.828;2022-09-21T00:04:49;6.70;;;4.50;;
7997;SDS011;4044;49.814;7.828;2022-09-21T00:07:15;9.70;;;5.07;;
7997;SDS011;4044;49.814;7.828;2022-09-21T00:09:40;7.73;;;5.47;;
7997;SDS011;4044;49.814;7.828;2022-09-21T00:12:06;10.50;;;5.53;;
7997;SDS011;4044;49.814;7.828;2022-09-21T00:14:31;8.97;;;6.40;;
7997;SDS011;4044;49.814;7.828;2022-09-21T00:16:57;11.07;;;5.60;;
7997;SDS011;4044;49.814;7.828;2022-09-21T00:19:22;5.97;;;5.30;;
7997;SDS011;4044;49.814;7.828;2022-09-21T00:21:48;8.00;;;5.30;;
7997;SDS011;4044;49.814;7.828;2022-09-21T00:24:13;9.07;;;5.20;;
7997;SDS011;4044;49.814;7.828;2022-09-21T00:26:39;7.93;;;5.17;;
7997;SDS011;4044;49.814;7.828;2022-09-21T00:29:04;7.23;;;5.57;;
7997;SDS011;4044;49.814;7.828;2022-09-21T00:31:30;7.27;;;4.93;;
7997;SDS011;4044;49.814;7.828;2022-09-21T00:33:57;8.77;;;5.33;;
7997;SDS011;4044;49.814;7.828;2022-09-21T00:36:24;9.23;;;5.67;;
7997;SDS011;4044;49.814;7.828;2022-09-21T00:38:50;8.00;;;5.67;;
7997;SDS011;4044;49.814;7.828;2022-09-21T00:41:17;7.97;;;5.93;;
7997;SDS011;4044;49.814;7.828;2022-09-21T00:43:47;7.53;;;5.57;;
7997;SDS011;4044;49.814;7.828;2022-09-21T00:46:33;5.77;;;5.27;;
7997;SDS011;4044;49.814;7.828;2022-09-21T00:49:01;9.90;;;5.73;;
7997;SDS011;4044;49.814;7.828;2022-09-21T00:51:26;8.67;;;6.30;;
7997;SDS011;4044;49.814;7.828;2022-09-21T00:53:55;9.03;;;5.07;;
7997;SDS011;4044;49.814;7.828;2022-09-21T00:56:25;8.67;;;5.00;;
7997;SDS011;4044;49.814;7.828;2022-09-21T00:58:51;9.40;;;5.23;;
7997;SDS011;4044;49.814;7.828;2022-09-21T01:01:19;6.93;;;5.00;;
7997;SDS011;4044;49.814;7.828;2022-09-21T01:03:45;8.20;;;5.03;;
7997;SDS011;4044;49.814;7.828;2022-09-21T01:06:15;6.07;;;5.03;;
7997;SDS011;4044;49.814;7.828;2022-09-21T01:08:43;7.43;;;5.03;;
7997;SDS011;4044;49.814;7.828;2022-09-21T01:17:17;7.67;;;4.80;;
7997;SDS011;4044;49.814;7.828;2022-09-21T01:20:14;6.97;;;5.17;;
7997;SDS011;4044;49.814;7.828;2022-09-21T01:23:10;7.40;;;4.90;;
7997;SDS011;4044;49.814;7.828;2022-09-21T01:26:11;8.60;;;5.33;;
7997;SDS011;4044;49.814;7.828;2022-09-21T01:28:55;5.20;;;4.53;;
7997;SDS011;4044;49.814;7.828;2022-09-21T01:31:30;8.93;;;5.53;;
7997;SDS011;4044;49.814;7.828;2022-09-21T01:34:04;9.80;;;5.40;;
7997;SDS011;4044;49.814;7.828;2022-09-21T01:36:35;8.50;;;5.60;;
7997;SDS011;4044;49.814;7.828;2022-09-21T01:39:05;9.67;;;5.30;;
7997;SDS011;4044;49.814;7.828;2022-09-21T01:41:34;8.17;;;5.63;;
7997;SDS011;4044;49.814;7.828;2022-09-21T01:44:07;7.50;;;5.50;;
7997;SDS011;4044;49.814;7.828;2022-09-21T01:46:36;8.33;;;5.87;;
7997;SDS011;4044;49.814;7.828;2022-09-21T01:49:07;6.30;;;5.63;;
7997;SDS011;4044;49.814;7.828;2022-09-21T01:51:37;9.27;;;5.70;;
7997;SDS011;4044;49.814;7.828;2022-09-21T01:54:09;8.00;;;6.43;;
7997;SDS011;4044;49.814;7.828;2022-09-21T01:56:57;8.23;;;5.80;;
7997;SDS011;4044;49.814;7.828;2022-09-21T01:59:53;6.80;;;5.03;;
7997;SDS011;4044;49.814;7.828;2022-09-21T02:02:24;11.47;;;6.43;;
7997;SDS011;4044;49.814;7.828;2022-09-21T02:04:56;9.47;;;5.53;;
7997;SDS011;4044;49.814;7.828;2022-09-21T02:07:26;7.43;;;5.70;;
7997;SDS011;4044;49.814;7.828;2022-09-21T02:09:51;14.73;;;6.23;;
7997;SDS011;4044;49.814;7.828;2022-09-21T02:12:19;13.73;;;7.00;;
7997;SDS011;4044;49.814;7.828;2022-09-21T02:14:45;23.27;;;8.23;;
7997;SDS011;4044;49.814;7.828;2022-09-21T02:17:14;33.80;;;8.70;;
7997;SDS011;4044;49.814;7.828;2022-09-21T02:19:56;42.80;;;10.00;;
7997;SDS011;4044;49.814;7.828;2022-09-21T02:25:30;44.00;;;11.13;;
7997;SDS011;4044;49.814;7.828;2022-09-21T02:28:03;77.27;;;12.30;;
7997;SDS011;4044;49.814;7.828;2022-09-21T02:30:35;59.20;;;12.40;;
7997;SDS011;4044;49.814;7.828;2022-09-21T02:35:37;48.50;;;11.23;;
7997;SDS011;4044;49.814;7.828;2022-09-21T02:43:43;50.40;;;10.30;;
7997;SDS011;4044;49.814;7.828;2022-09-21T02:46:27;65.07;;;11.63;;
7997;SDS011;4044;49.814;7.828;2022-09-21T02:49:02;52.17;;;10.40;;
7997;SDS011;4044;49.814;7.828;2022-09-21T02:51:34;41.67;;;9.37;;
7997;SDS011;4044;49.814;7.828;2022-09-21T02:54:03;36.17;;;8.93;;
7997;SDS011;4044;49.814;7.828;2022-09-21T02:56:30;62.30;;;12.60;;
7997;SDS011;4044;49.814;7.828;2022-09-21T02:58:57;46.17;;;10.77;;
7997;SDS011;4044;49.814;7.828;2022-09-21T03:01:26;46.53;;;9.47;;
7997;SDS011;4044;49.814;7.828;2022-09-21T03:03:53;44.33;;;9.30;;
7997;SDS011;4044;49.814;7.828;2022-09-21T03:06:18;26.13;;;8.33;;
7997;SDS011;4044;49.814;7.828;2022-09-21T03:08:44;88.47;;;11.23;;
7997;SDS011;4044;49.814;7.828;2022-09-21T03:11:09;85.90;;;11.70;;
7997;SDS011;4044;49.814;7.828;2022-09-21T03:13:35;97.20;;;11.27;;
7997;SDS011;4044;49.814;7.828;2022-09-21T03:16:03;41.20;;;9.17;;
7997;SDS011;4044;49.814;7.828;2022-09-21T03:18:30;80.47;;;11.47;;
7997;SDS011;4044;49.814;7.828;2022-09-21T03:20:56;77.40;;;10.80;;
7997;SDS011;4044;49.814;7.828;2022-09-21T03:23:21;17.13;;;7.63;;
7997;SDS011;4044;49.814;7.828;2022-09-21T03:25:49;215.70;;;17.70;;
7997;SDS011;4044;49.814;7.828;2022-09-21T03:28:16;19.63;;;7.37;;
7997;SDS011;4044;49.814;7.828;2022-09-21T03:30:42;42.77;;;9.00;;
7997;SDS011;4044;49.814;7.828;2022-09-21T03:33:07;109.40;;;12.67;;
7997;SDS011;4044;49.814;7.828;2022-09-21T03:35:33;183.77;;;18.40;;
7997;SDS011;4044;49.814;7.828;2022-09-21T03:37:59;27.10;;;7.07;;
7997;SDS011;4044;49.814;7.828;2022-09-21T03:40:25;130.93;;;12.63;;
7997;SDS011;4044;49.814;7.828;2022-09-21T03:42:52;47.13;;;8.07;;
7997;SDS011;4044;49.814;7.828;2022-09-21T03:45:18;201.67;;;15.27;;
7997;SDS011;4044;49.814;7.828;2022-09-21T03:47:46;209.77;;;15.17;;
7997;SDS011;4044;49.814;7.828;2022-09-21T03:50:12;189.80;;;14.50;;
7997;SDS011;4044;49.814;7.828;2022-09-21T03:52:38;248.77;;;21.13;;
7997;SDS011;4044;49.814;7.828;2022-09-21T03:55:05;96.43;;;9.20;;
7997;SDS011;4044;49.814;7.828;2022-09-21T03:57:32;111.47;;;11.53;;
7997;SDS011;4044;49.814;7.828;2022-09-21T03:59:59;113.60;;;12.00;;
7997;SDS011;4044;49.814;7.828;2022-09-21T04:02:27;44.63;;;7.67;;
7997;SDS011;4044;49.814;7.828;2022-09-21T04:04:53;265.30;;;19.93;;
7997;SDS011;4044;49.814;7.828;2022-09-21T04:07:19;66.57;;;10.30;;
7997;SDS011;4044;49.814;7.828;2022-09-21T04:09:44;100.10;;;11.60;;
7997;SDS011;4044;49.814;7.828;2022-09-21T04:12:09;185.20;;;17.07;;
7997;SDS011;4044;49.814;7.828;2022-09-21T04:14:35;120.03;;;13.83;;
7997;SDS011;4044;49.814;7.828;2022-09-21T04:17:01;122.70;;;12.90;;
7997;SDS011;4044;49.814;7.828;2022-09-21T04:19:26;78.37;;;11.53;;
7997;SDS011;4044;49.814;7.828;2022-09-21T04:21:52;65.43;;;9.43;;
7997;SDS011;4044;49.814;7.828;2022-09-21T04:24:18;69.17;;;9.47;;
7997;SDS011;4044;49.814;7.828;2022-09-21T04:26:44;54.90;;;8.47;;
7997;SDS011;4044;49.814;7.828;2022-09-21T04:29:11;89.27;;;10.57;;
7997;SDS011;4044;49.814;7.828;2022-09-21T04:31:37;130.67;;;12.57;;
7997;SDS011;4044;49.814;7.828;2022-09-21T04:34:03;42.70;;;8.67;;
7997;SDS011;4044;49.814;7.828;2022-09-21T04:36:28;28.27;;;6.93;;
7997;SDS011;4044;49.814;7.828;2022-09-21T04:38:56;94.13;;;10.63;;
7997;SDS011;4044;49.814;7.828;2022-09-21T04:41:24;105.20;;;10.37;;
7997;SDS011;4044;49.814;7.828;2022-09-21T04:43:50;148.37;;;13.93;;
7997;SDS011;4044;49.814;7.828;2022-09-21T04:46:16;83.97;;;9.27;;
7997;SDS011;4044;49.814;7.828;2022-09-21T04:48:42;47.73;;;7.93;;
7997;SDS011;4044;49.814;7.828;2022-09-21T04:51:09;83.83;;;9.30;;
7997;SDS011;4044;49.814;7.828;2022-09-21T04:53:35;32.97;;;6.90;;
7997;SDS011;4044;49.814;7.828;2022-09-21T04:56:02;20.87;;;6.30;;
7997;SDS011;4044;49.814;7.828;2022-09-21T04:58:29;37.90;;;7.60;;
7997;SDS011;4044;49.814;7.828;2022-09-21T05:00:54;59.63;;;9.27;;
7997;SDS011;4044;49.814;7.828;2022-09-21T05:03:20;81.87;;;10.50;;
7997;SDS011;4044;49.814;7.828;2022-09-21T05:05:47;113.40;;;12.40;;
7997;SDS011;4044;49.814;7.828;2022-09-21T05:08:14;25.17;;;6.83;;
7997;SDS011;4044;49.814;7.828;2022-09-21T05:10:40;13.13;;;5.50;;
7997;SDS011;4044;49.814;7.828;2022-09-21T05:13:06;43.47;;;7.53;;
7997;SDS011;4044;49.814;7.828;2022-09-21T05:15:32;33.27;;;6.37;;
7997;SDS011;4044;49.814;7.828;2022-09-21T05:17:58;41.00;;;7.10;;
7997;SDS011;4044;49.814;7.828;2022-09-21T05:20:23;96.23;;;10.47;;
7997;SDS011;4044;49.814;7.828;2022-09-21T05:22:49;23.67;;;6.93;;
7997;SDS011;4044;49.814;7.828;2022-09-21T05:25:14;57.13;;;8.60;;
7997;SDS011;4044;49.814;7.828;2022-09-21T05:27:40;47.47;;;7.93;;
7997;SDS011;4044;49.814;7.828;2022-09-21T05:30:06;23.67;;;6.47;;
7997;SDS011;4044;49.814;7.828;2022-09-21T05:32:37;54.77;;;9.27;;
7997;SDS011;4044;49.814;7.828;2022-09-21T05:35:32;34.53;;;9.80;;
7997;SDS011;4044;49.814;7.828;2022-09-21T05:40:27;43.87;;;8.23;;
7997;SDS011;4044;49.814;7.828;2022-09-21T05:42:52;89.30;;;10.07;;
7997;SDS011;4044;49.814;7.828;2022-09-21T05:45:18;53.17;;;8.73;;
7997;SDS011;4044;49.814;7.828;2022-09-21T05:53:21;193.40;;;15.43;;
7997;SDS011;4044;49.814;7.828;2022-09-21T05:58:28;33.97;;;6.73;;
7997;SDS011;4044;49.814;7.828;2022-09-21T06:04:06;45.63;;;8.33;;
7997;SDS011;4044;49.814;7.828;2022-09-21T06:06:37;58.97;;;7.77;;
7997;SDS011;4044;49.814;7.828;2022-09-21T06:09:03;21.97;;;6.40;;
7997;SDS011;4044;49.814;7.828;2022-09-21T06:11:29;26.90;;;6.13;;
7997;SDS011;4044;49.814;7.828;2022-09-21T06:13:54;98.37;;;9.80;;
7997;SDS011;4044;49.814;7.828;2022-09-21T06:16:20;23.00;;;6.37;;
7997;SDS011;4044;49.814;7.828;2022-09-21T06:18:45;90.90;;;9.80;;
7997;SDS011;4044;49.814;7.828;2022-09-21T06:21:11;39.50;;;7.10;;
7997;SDS011;4044;49.814;7.828;2022-09-21T06:23:36;125.13;;;12.20;;
7997;SDS011;4044;49.814;7.828;2022-09-21T06:26:02;38.23;;;6.33;;
7997;SDS011;4044;49.814;7.828;2022-09-21T06:28:28;24.13;;;5.80;;
7997;SDS011;4044;49.814;7.828;2022-09-21T06:30:54;138.70;;;11.43;;
7997;SDS011;4044;49.814;7.828;2022-09-21T06:33:21;172.90;;;13.10;;
7997;SDS011;4044;49.814;7.828;2022-09-21T06:35:54;49.50;;;6.60;;
7997;SDS011;4044;49.814;7.828;2022-09-21T06:38:21;86.63;;;8.63;;
7997;SDS011;4044;49.814;7.828;2022-09-21T06:40:48;21.70;;;5.17;;
7997;SDS011;4044;49.814;7.828;2022-09-21T06:43:14;23.50;;;5.57;;
7997;SDS011;4044;49.814;7.828;2022-09-21T06:45:40;41.10;;;7.40;;
7997;SDS011;4044;49.814;7.828;2022-09-21T06:48:06;25.17;;;6.17;;
7997;SDS011;4044;49.814;7.828;2022-09-21T06:50:31;81.27;;;9.00;;
7997;SDS011;4044;49.814;7.828;2022-09-21T06:53:00;28.47;;;5.60;;
7997;SDS011;4044;49.814;7.828;2022-09-21T06:55:27;20.87;;;5.67;;
7997;SDS011;4044;49.814;7.828;2022-09-21T06:57:58;57.80;;;7.17;;
7997;SDS011;4044;49.814;7.828;2022-09-21T07:00:27;20.40;;;5.60;;
7997;SDS011;4044;49.814;7.828;2022-09-21T07:02:52;27.10;;;6.03;;
7997;SDS011;4044;49.814;7.828;2022-09-21T07:05:18;23.63;;;5.10;;
7997;SDS011;4044;49.814;7.828;2022-09-21T07:07:43;17.70;;;5.50;;
7997;SDS011;4044;49.814;7.828;2022-09-21T07:10:09;21.37;;;5.57;;
7997;SDS011;4044;49.814;7.828;2022-09-21T07:12:34;32.63;;;6.30;;
7997;SDS011;4044;49.814;7.828;2022-09-21T07:15:00;20.03;;;5.43;;
7997;SDS011;4044;49.814;7.828;2022-09-21T07:17:30;26.40;;;5.77;;
7997;SDS011;4044;49.814;7.828;2022-09-21T07:20:00;13.43;;;5.53;;
7997;SDS011;4044;49.814;7.828;2022-09-21T07:22:27;8.23;;;4.93;;
7997;SDS011;4044;49.814;7.828;2022-09-21T07:24:54;7.17;;;5.23;;
7997;SDS011;4044;49.814;7.828;2022-09-21T07:27:19;29.10;;;6.60;;
7997;SDS011;4044;49.814;7.828;2022-09-21T07:29:45;21.10;;;7.03;;
7997;SDS011;4044;49.814;7.828;2022-09-21T07:32:11;18.93;;;5.90;;
7997;SDS011;4044;49.814;7.828;2022-09-21T07:34:37;8.27;;;5.03;;
7997;SDS011;4044;49.814;7.828;2022-09-21T07:37:03;7.23;;;5.10;;
7997;SDS011;4044;49.814;7.828;2022-09-21T07:39:29;8.40;;;5.47;;
7997;SDS011;4044;49.814;7.828;2022-09-21T07:41:54;17.73;;;4.90;;
7997;SDS011;4044;49.814;7.828;2022-09-21T07:44:22;13.77;;;5.07;;
7997;SDS011;4044;49.814;7.828;2022-09-21T07:46:48;15.77;;;5.00;;
7997;SDS011;4044;49.814;7.828;2022-09-21T07:49:14;18.93;;;5.50;;
7997;SDS011;4044;49.814;7.828;2022-09-21T07:51:39;11.83;;;4.73;;
7997;SDS011;4044;49.814;7.828;2022-09-21T07:54:05;17.30;;;5.00;;
7997;SDS011;4044;49.814;7.828;2022-09-21T07:56:33;16.57;;;5.43;;
7997;SDS011;4044;49.814;7.828;2022-09-21T07:59:00;15.17;;;5.70;;
7997;SDS011;4044;49.814;7.828;2022-09-21T08:01:33;23.40;;;5.77;;
7997;SDS011;4044;49.814;7.828;2022-09-21T08:04:01;34.43;;;6.17;;
7997;SDS011;4044;49.814;7.828;2022-09-21T08:06:28;12.33;;;5.60;;
7997;SDS011;4044;49.814;7.828;2022-09-21T08:08:56;20.20;;;5.60;;
7997;SDS011;4044;49.814;7.828;2022-09-21T08:11:23;10.47;;;6.13;;
7997;SDS011;4044;49.814;7.828;2022-09-21T08:14:08;9.53;;;7.23;;
7997;SDS011;4044;49.814;7.828;2022-09-21T08:16:34;14.63;;;6.47;;
7997;SDS011;4044;49.814;7.828;2022-09-21T08:19:03;8.73;;;6.23;;
7997;SDS011;4044;49.814;7.828;2022-09-21T08:21:29;7.80;;;6.53;;
7997;SDS011;4044;49.814;7.828;2022-09-21T08:23:54;7.77;;;5.83;;
7997;SDS011;4044;49.814;7.828;2022-09-21T08:26:20;8.73;;;6.70;;
7997;SDS011;4044;49.814;7.828;2022-09-21T08:28:48;8.47;;;6.83;;
7997;SDS011;4044;49.814;7.828;2022-09-21T08:31:15;9.07;;;6.97;;
7997;SDS011;4044;49.814;7.828;2022-09-21T08:33:43;7.33;;;6.13;;
7997;SDS011;4044;49.814;7.828;2022-09-21T08:36:09;8.43;;;6.63;;
7997;SDS011;4044;49.814;7.828;2022-09-21T08:38:35;9.03;;;7.67;;
7997;SDS011;4044;49.814;7.828;2022-09-21T08:41:12;9.17;;;7.10;;
7997;SDS011;4044;49.814;7.828;2022-09-21T08:43:58;11.17;;;7.60;;
7997;SDS011;4044;49.814;7.828;2022-09-21T08:46:34;9.03;;;6.90;;
7997;SDS011;4044;49.814;7.828;2022-09-21T08:49:05;9.97;;;7.47;;
7997;SDS011;4044;49.814;7.828;2022-09-21T08:51:41;9.10;;;7.30;;
7997;SDS011;4044;49.814;7.828;2022-09-21T08:54:21;10.40;;;7.10;;
7997;SDS011;4044;49.814;7.828;2022-09-21T08:56:49;9.73;;;7.50;;
7997;SDS011;4044;49.814;7.828;2022-09-21T08:59:15;10.47;;;7.53;;
7997;SDS011;4044;49.814;7.828;2022-09-21T09:09:27;9.53;;;7.50;;
7997;SDS011;4044;49.814;7.828;2022-09-21T09:18:12;8.03;;;5.87;;
7997;SDS011;4044;49.814;7.828;2022-09-21T09:23:11;6.60;;;5.43;;
7997;SDS011;4044;49.814;7.828;2022-09-21T09:25:41;8.47;;;5.03;;
7997;SDS011;4044;49.814;7.828;2022-09-21T09:30:38;8.10;;;4.83;;
7997;SDS011;4044;49.814;7.828;2022-09-21T09:33:05;8.10;;;4.77;;
7997;SDS011;4044;49.814;7.828;2022-09-21T09:35:53;9.10;;;4.83;;
7997;SDS011;4044;49.814;7.828;2022-09-21T09:38:36;6.00;;;5.20;;
7997;SDS011;4044;49.814;7.828;2022-09-21T09:41:20;6.57;;;4.73;;
7997;SDS011;4044;49.814;7.828;2022-09-21T09:46:47;7.43;;;4.87;;
7997;SDS011;4044;49.814;7.828;2022-09-21T09:52:37;4.50;;;4.10;;
7997;SDS011;4044;49.814;7.828;2022-09-21T09:57:49;4.23;;;3.83;;
7997;SDS011;4044;49.814;7.828;2022-09-21T10:00:19;7.53;;;4.37;;
7997;SDS011;4044;49.814;7.828;2022-09-21T10:02:46;4.93;;;3.50;;
7997;SDS011;4044;49.814;7.828;2022-09-21T10:05:21;4.63;;;3.87;;
7997;SDS011;4044;49.814;7.828;2022-09-21T10:07:58;4.57;;;3.10;;
7997;SDS011;4044;49.814;7.828;2022-09-21T10:13:10;5.47;;;3.33;;
7997;SDS011;4044;49.814;7.828;2022-09-21T10:15:53;5.80;;;4.13;;
7997;SDS011;4044;49.814;7.828;2022-09-21T10:20:54;6.90;;;3.90;;
7997;SDS011;4044;49.814;7.828;2022-09-21T10:23:22;4.80;;;2.80;;
7997;SDS011;4044;49.814;7.828;2022-09-21T10:25:53;3.47;;;2.67;;
7997;SDS011;4044;49.814;7.828;2022-09-21T10:28:21;3.03;;;2.80;;
7997;SDS011;4044;49.814;7.828;2022-09-21T10:30:47;4.93;;;3.13;;
7997;SDS011;4044;49.814;7.828;2022-09-21T10:33:19;2.67;;;2.43;;
7997;SDS011;4044;49.814;7.828;2022-09-21T10:35:49;3.53;;;2.70;;
7997;SDS011;4044;49.814;7.828;2022-09-21T10:38:17;3.07;;;2.07;;
7997;SDS011;4044;49.814;7.828;2022-09-21T10:40:44;3.13;;;2.83;;
7997;SDS011;4044;49.814;7.828;2022-09-21T10:46:00;6.00;;;2.93;;
7997;SDS011;4044;49.814;7.828;2022-09-21T10:48:26;3.73;;;2.70;;
7997;SDS011;4044;49.814;7.828;2022-09-21T10:50:53;3.23;;;2.20;;
7997;SDS011;4044;49.814;7.828;2022-09-21T10:53:25;2.95;;;2.65;;
7997;SDS011;4044;49.814;7.828;2022-09-21T10:55:57;4.00;;;2.40;;
7997;SDS011;4044;49.814;7.828;2022-09-21T10:58:32;3.90;;;2.80;;
7997;SDS011;4044;49.814;7.828;2022-09-21T11:01:09;5.45;;;2.90;;
7997;SDS011;4044;49.814;7.828;2022-09-21T11:03:50;4.05;;;2.55;;
7997;SDS011;4044;49.814;7.828;2022-09-21T11:06:41;3.35;;;2.47;;
7997;SDS011;4044;49.814;7.828;2022-09-21T11:12:04;4.78;;;3.28;;
7997;SDS011;4044;49.814;7.828;2022-09-21T11:15:32;5.90;;;2.92;;
7997;SDS011;4044;49.814;7.828;2022-09-21T11:17:40;3.45;;;2.60;;
7997;SDS011;4044;49.814;7.828;2022-09-21T11:20:27;3.88;;;2.30;;
7997;SDS011;4044;49.814;7.828;2022-09-21T11:25:42;5.07;;;3.20;;
7997;SDS011;4044;49.814;7.828;2022-09-21T11:37:26;3.22;;;2.50;;
7997;SDS011;4044;49.814;7.828;2022-09-21T11:40:47;3.58;;;2.35;;
7997;SDS011;4044;49.814;7.828;2022-09-21T11:49:14;3.38;;;2.03;;
7997;SDS011;4044;49.814;7.828;2022-09-21T11:51:16;4.45;;;2.00;;
7997;SDS011;4044;49.814;7.828;2022-09-21T11:53:58;3.67;;;1.88;;
7997;SDS011;4044;49.814;7.828;2022-09-21T11:57:01;4.38;;;1.70;;
7997;SDS011;4044;49.814;7.828;2022-09-21T12:02:31;1.98;;;1.52;;
7997;SDS011;4044;49.814;7.828;2022-09-21T12:08:10;3.80;;;1.88;;
7997;SDS011;4044;49.814;7.828;2022-09-21T12:19:02;2.63;;;1.30;;
7997;SDS011;4044;49.814;7.828;2022-09-21T12:21:34;1.48;;;1.30;;
7997;SDS011;4044;49.814;7.828;2022-09-21T12:24:11;2.65;;;1.40;;
7997;SDS011;4044;49.814;7.828;2022-09-21T12:26:41;2.10;;;1.65;;
7997;SDS011;4044;49.814;7.828;2022-09-21T12:32:06;3.17;;;1.20;;
7997;SDS011;4044;49.814;7.828;2022-09-21T12:34:54;2.33;;;1.40;;
7997;SDS011;4044;49.814;7.828;2022-09-21T12:40:26;2.30;;;1.10;;
7997;SDS011;4044;49.814;7.828;2022-09-21T12:46:05;2.17;;;1.20;;
7997;SDS011;4044;49.814;7.828;2022-09-21T12:48:36;1.75;;;1.10;;
7997;SDS011;4044;49.814;7.828;2022-09-21T12:51:05;1.90;;;1.00;;
7997;SDS011;4044;49.814;7.828;2022-09-21T12:53:37;1.30;;;1.00;;
7997;SDS011;4044;49.814;7.828;2022-09-21T12:58:52;2.03;;;1.00;;
7997;SDS011;4044;49.814;7.828;2022-09-21T13:07:07;1.42;;;1.20;;
7997;SDS011;4044;49.814;7.828;2022-09-21T13:09:39;1.00;;;0.90;;
7997;SDS011;4044;49.814;7.828;2022-09-21T13:12:08;1.65;;;0.88;;
7997;SDS011;4044;49.814;7.828;2022-09-21T13:15:02;2.28;;;1.00;;
7997;SDS011;4044;49.814;7.828;2022-09-21T13:17:37;1.10;;;1.05;;
7997;SDS011;4044;49.814;7.828;2022-09-21T13:20:04;1.13;;;1.05;;
7997;SDS011;4044;49.814;7.828;2022-09-21T13:22:44;2.00;;;1.00;;
7997;SDS011;4044;49.814;7.828;2022-09-21T13:25:24;1.80;;;0.90;;
7997;SDS011;4044;49.814;7.828;2022-09-21T13:27:59;0.95;;;0.80;;
7997;SDS011;4044;49.814;7.828;2022-09-21T13:30:41;1.20;;;0.98;;
7997;SDS011;4044;49.814;7.828;2022-09-21T13:35:51;1.63;;;0.90;;
7997;SDS011;4044;49.814;7.828;2022-09-21T13:49:02;1.77;;;1.10;;
7997;SDS011;4044;49.814;7.828;2022-09-21T13:54:27;1.17;;;0.90;;
7997;SDS011;4044;49.814;7.828;2022-09-21T13:56:59;1.90;;;1.00;;
7997;SDS011;4044;49.814;7.828;2022-09-21T13:59:29;2.25;;;0.90;;
7997;SDS011;4044;49.814;7.828;2022-09-21T14:01:58;1.52;;;1.05;;
7997;SDS011;4044;49.814;7.828;2022-09-21T14:04:42;1.85;;;1.00;;
7997;SDS011;4044;49.814;7.828;2022-09-21T14:07:14;0.90;;;0.90;;
7997;SDS011;4044;49.814;7.828;2022-09-21T14:09:55;0.90;;;0.80;;
7997;SDS011;4044;49.814;7.828;2022-09-21T14:12:26;0.77;;;0.75;;
7997;SDS011;4044;49.814;7.828;2022-09-21T14:20:40;1.20;;;0.90;;
7997;SDS011;4044;49.814;7.828;2022-09-21T14:31:46;2.13;;;1.00;;
7997;SDS011;4044;49.814;7.828;2022-09-21T14:34:15;1.23;;;0.95;;
7997;SDS011;4044;49.814;7.828;2022-09-21T14:36:47;0.70;;;0.70;;
7997;SDS011;4044;49.814;7.828;2022-09-21T14:39:18;1.00;;;0.88;;
7997;SDS011;4044;49.814;7.828;2022-09-21T14:41:44;1.15;;;0.90;;
7997;SDS011;4044;49.814;7.828;2022-09-21T14:44:17;0.63;;;0.63;;
7997;SDS011;4044;49.814;7.828;2022-09-21T14:46:54;0.80;;;0.80;;
7997;SDS011;4044;49.814;7.828;2022-09-21T14:49:37;0.80;;;0.80;;
7997;SDS011;4044;49.814;7.828;2022-09-21T15:00:16;0.80;;;0.80;;
7997;SDS011;4044;49.814;7.828;2022-09-21T15:03:19;0.70;;;0.70;;
7997;SDS011;4044;49.814;7.828;2022-09-21T15:05:41;0.70;;;0.70;;
7997;SDS011;4044;49.814;7.828;2022-09-21T15:08:35;1.02;;;0.93;;
7997;SDS011;4044;49.814;7.828;2022-09-21T15:11:35;1.15;;;0.90;;
7997;SDS011;4044;49.814;7.828;2022-09-21T15:14:14;2.65;;;0.77;;
7997;SDS011;4044;49.814;7.828;2022-09-21T15:17:01;0.70;;;0.70;;
7997;SDS011;4044;49.814;7.828;2022-09-21T15:19:47;0.70;;;0.70;;
7997;SDS011;4044;49.814;7.828;2022-09-21T15:22:18;1.02;;;0.80;;
7997;SDS011;4044;49.814;7.828;2022-09-21T15:24:50;0.65;;;0.65;;
7997;SDS011;4044;49.814;7.828;2022-09-21T15:27:17;1.90;;;0.80;;
7997;SDS011;4044;49.814;7.828;2022-09-21T15:29:48;0.80;;;0.80;;
7997;SDS011;4044;49.814;7.828;2022-09-21T15:35:02;0.80;;;0.80;;
7997;SDS011;4044;49.814;7.828;2022-09-21T15:37:34;0.80;;;0.80;;
7997;SDS011;4044;49.814;7.828;2022-09-21T15:40:04;0.50;;;0.50;;
7997;SDS011;4044;49.814;7.828;2022-09-21T15:42:40;0.57;;;0.57;;
7997;SDS011;4044;49.814;7.828;2022-09-21T15:45:26;1.83;;;0.80;;
7997;SDS011;4044;49.814;7.828;2022-09-21T15:47:53;1.23;;;0.70;;
7997;SDS011;4044;49.814;7.828;2022-09-21T15:50:19;0.75;;;0.75;;
7997;SDS011;4044;49.814;7.828;2022-09-21T15:52:52;0.88;;;0.88;;
7997;SDS011;4044;49.814;7.828;2022-09-21T15:55:22;0.93;;;0.80;;
7997;SDS011;4044;49.814;7.828;2022-09-21T15:57:49;0.70;;;0.70;;
7997;SDS011;4044;49.814;7.828;2022-09-21T16:02:53;0.63;;;0.63;;
7997;SDS011;4044;49.814;7.828;2022-09-21T16:05:28;1.13;;;0.70;;
7997;SDS011;4044;49.814;7.828;2022-09-21T16:08:15;1.73;;;0.80;;
7997;SDS011;4044;49.814;7.828;2022-09-21T16:10:46;0.95;;;0.80;;
7997;SDS011;4044;49.814;7.828;2022-09-21T16:16:10;0.85;;;0.85;;
7997;SDS011;4044;49.814;7.828;2022-09-21T16:23:45;0.80;;;0.80;;
7997;SDS011;4044;49.814;7.828;2022-09-21T16:26:34;1.92;;;0.93;;
7997;SDS011;4044;49.814;7.828;2022-09-21T16:29:19;0.95;;;0.90;;
7997;SDS011;4044;49.814;7.828;2022-09-21T16:31:48;0.70;;;0.70;;
7997;SDS011;4044;49.814;7.828;2022-09-21T16:34:30;1.13;;;0.93;;
7997;SDS011;4044;49.814;7.828;2022-09-21T16:37:01;0.80;;;0.80;;
7997;SDS011;4044;49.814;7.828;2022-09-21T16:39:52;2.75;;;0.90;;
7997;SDS011;4044;49.814;7.828;2022-09-21T16:42:19;1.42;;;0.90;;
7997;SDS011;4044;49.814;7.828;2022-09-21T16:44:46;0.90;;;0.90;;
7997;SDS011;4044;49.814;7.828;2022-09-21T16:47:14;0.73;;;0.73;;
7997;SDS011;4044;49.814;7.828;2022-09-21T16:49:45;1.10;;;1.00;;
7997;SDS011;4044;49.814;7.828;2022-09-21T16:52:10;0.98;;;0.90;;
7997;SDS011;4044;49.814;7.828;2022-09-21T16:54:36;1.98;;;0.90;;
7997;SDS011;4044;49.814;7.828;2022-09-21T16:57:02;0.68;;;0.68;;
7997;SDS011;4044;49.814;7.828;2022-09-21T16:59:30;1.40;;;0.68;;
7997;SDS011;4044;49.814;7.828;2022-09-21T17:01:57;0.70;;;0.70;;
7997;SDS011;4044;49.814;7.828;2022-09-21T17:04:25;1.25;;;1.00;;
7997;SDS011;4044;49.814;7.828;2022-09-21T17:06:52;3.17;;;0.90;;
7997;SDS011;4044;49.814;7.828;2022-09-21T17:11:46;0.90;;;0.90;;
7997;SDS011;4044;49.814;7.828;2022-09-21T17:14:13;1.77;;;1.15;;
7997;SDS011;4044;49.814;7.828;2022-09-21T17:16:41;1.85;;;1.05;;
7997;SDS011;4044;49.814;7.828;2022-09-21T17:19:17;1.08;;;1.08;;
7997;SDS011;4044;49.814;7.828;2022-09-21T17:21:43;1.10;;;1.10;;
7997;SDS011;4044;49.814;7.828;2022-09-21T17:24:10;1.30;;;1.00;;
7997;SDS011;4044;49.814;7.828;2022-09-21T17:26:37;0.98;;;0.90;;
7997;SDS011;4044;49.814;7.828;2022-09-21T17:29:04;1.40;;;1.40;;
7997;SDS011;4044;49.814;7.828;2022-09-21T17:31:39;1.60;;;1.60;;
7997;SDS011;4044;49.814;7.828;2022-09-21T17:34:08;4.53;;;2.10;;
7997;SDS011;4044;49.814;7.828;2022-09-21T17:36:36;2.33;;;2.17;;
7997;SDS011;4044;49.814;7.828;2022-09-21T17:39:01;2.50;;;2.30;;
7997;SDS011;4044;49.814;7.828;2022-09-21T17:41:28;1.90;;;1.70;;
7997;SDS011;4044;49.814;7.828;2022-09-21T17:44:06;1.42;;;1.33;;
7997;SDS011;4044;49.814;7.828;2022-09-21T17:49:09;2.03;;;1.67;;
7997;SDS011;4044;49.814;7.828;2022-09-21T17:51:35;1.30;;;1.20;;
7997;SDS011;4044;49.814;7.828;2022-09-21T17:54:20;1.40;;;1.30;;
7997;SDS011;4044;49.814;7.828;2022-09-21T17:56:46;1.23;;;1.20;;
7997;SDS011;4044;49.814;7.828;2022-09-21T17:59:26;1.27;;;1.17;;
7997;SDS011;4044;49.814;7.828;2022-09-21T18:01:56;1.38;;;1.10;;
7997;SDS011;4044;49.814;7.828;2022-09-21T18:04:24;1.40;;;1.30;;
7997;SDS011;4044;49.814;7.828;2022-09-21T18:06:55;1.92;;;1.40;;
7997;SDS011;4044;49.814;7.828;2022-09-21T18:09:21;2.10;;;1.30;;
7997;SDS011;4044;49.814;7.828;2022-09-21T18:14:29;1.30;;;1.20;;
7997;SDS011;4044;49.814;7.828;2022-09-21T18:22:57;1.37;;;1.10;;
7997;SDS011;4044;49.814;7.828;2022-09-21T18:25:39;1.10;;;1.00;;
7997;SDS011;4044;49.814;7.828;2022-09-21T18:28:16;53.70;;;5.07;;
7997;SDS011;4044;49.814;7.828;2022-09-21T18:40:26;1.70;;;1.60;;
7997;SDS011;4044;49.814;7.828;2022-09-21T18:43:01;2.33;;;1.50;;
7997;SDS011;4044;49.814;7.828;2022-09-21T18:45:42;2.40;;;1.50;;